Time;durP1;ratioP1;P1;durP2;ratioP2;P2;SDS_P1;SDS_P2;PMS_P1;PMS_P2;Temp;Humidity;BMP_temperature;BMP_pressure;BME280_temperature;BME280_humidity;BME280_pressure;Samples;Min_cycle;Max_cycle;Signal;HPM_P1;HPM_P2
2023/03/06 00:00:51;;;;;;;20.35;9.70;;;2.30;99.90;;;;;;6184055;23;20001;-92
2023/03/06 00:03:17;;;;;;;23.55;10.65;;;2.30;99.90;;;;;;6156590;23;20013;-91
2023/03/06 00:05:43;;;;;;;19.73;9.20;;;2.30;99.90;;;;;;6157703;23;20079;-92
2023/03/06 00:08:08;;;;;;;20.10;9.85;;;2.40;99.90;;;;;;6159031;23;20080;-91
2023/03/06 00:10:34;;;;;;;21.58;9.60;;;2.40;99.90;;;;;;6157923;23;20005;-91
2023/03/06 00:13:04;;;;;;;20.20;10.40;;;2.40;99.90;;;;;;6157692;23;20009;-92
2023/03/06 00:15:30;;;;;;;26.50;10.13;;;2.40;99.90;;;;;;6157700;23;20092;-92
2023/03/06 00:17:56;;;;;;;25.60;10.27;;;2.40;99.90;;;;;;6157892;23;20052;-93
2023/03/06 00:20:23;;;;;;;20.30;9.43;;;2.40;99.90;;;;;;6183974;23;20016;-92
2023/03/06 00:22:49;;;;;;;23.92;9.85;;;2.30;99.90;;;;;;6156671;23;20009;-92
2023/03/06 00:25:18;;;;;;;25.63;10.48;;;2.40;99.90;;;;;;6157175;23;20005;-92
2023/03/06 00:27:44;;;;;;;27.60;11.98;;;2.30;99.90;;;;;;6182890;23;20009;-86
2023/03/06 00:30:12;;;;;;;29.20;11.25;;;2.30;99.90;;;;;;6182936;23;20012;-92
2023/03/06 00:32:38;;;;;;;29.73;11.77;;;2.30;99.90;;;;;;6156994;23;20116;-91
2023/03/06 00:35:04;;;;;;;29.75;10.80;;;2.30;99.90;;;;;;6156071;23;20001;-92
2023/03/06 00:37:29;;;;;;;37.55;14.00;;;2.30;99.90;;;;;;6182240;23;20005;-92
2023/03/06 00:39:55;;;;;;;30.80;13.40;;;2.30;99.90;;;;;;6156992;23;20222;-93
2023/03/06 00:42:21;;;;;;;32.58;12.85;;;2.30;99.90;;;;;;6155842;23;20016;-92
2023/03/06 00:44:46;;;;;;;32.67;13.77;;;2.30;99.90;;;;;;6182722;23;20005;-89
2023/03/06 00:47:16;;;;;;;36.95;15.30;;;2.30;99.90;;;;;;6157748;23;20011;-90
2023/03/06 00:49:42;;;;;;;56.97;18.58;;;2.30;99.90;;;;;;6158274;23;20122;-90
2023/03/06 00:52:08;;;;;;;35.08;14.40;;;2.30;99.90;;;;;;6157541;23;20020;-91
2023/03/06 00:54:34;;;;;;;36.45;15.93;;;2.30;99.90;;;;;;6158544;23;20084;-92
2023/03/06 00:56:59;;;;;;;33.90;14.50;;;2.30;99.90;;;;;;6171298;23;20069;-90
2023/03/06 00:59:26;;;;;;;36.88;14.70;;;2.40;99.90;;;;;;6165507;23;20001;-90
2023/03/06 01:01:52;;;;;;;32.67;13.50;;;2.40;99.90;;;;;;6168678;23;20009;-90
2023/03/06 01:04:18;;;;;;;27.77;11.55;;;2.40;99.90;;;;;;6161873;23;20048;-90
2023/03/06 01:06:43;;;;;;;25.95;12.38;;;2.50;99.90;;;;;;6160797;23;20044;-90
2023/03/06 01:09:09;;;;;;;29.08;11.85;;;2.50;99.90;;;;;;6160620;23;20009;-89
2023/03/06 01:11:35;;;;;;;25.42;11.02;;;2.50;99.90;;;;;;6160370;23;20017;-90
2023/03/06 01:14:00;;;;;;;27.88;11.43;;;2.50;99.90;;;;;;6160665;23;20001;-90
2023/03/06 01:16:26;;;;;;;30.05;11.50;;;2.60;99.90;;;;;;6162305;23;20004;-89
2023/03/06 01:18:52;;;;;;;32.97;14.48;;;2.60;99.90;;;;;;6162294;23;19997;-89
2023/03/06 01:21:18;;;;;;;38.63;14.63;;;2.60;99.90;;;;;;6161104;23;20004;-90
2023/03/06 01:23:43;;;;;;;30.70;13.65;;;2.50;99.90;;;;;;6162011;23;20447;-90
2023/03/06 01:26:09;;;;;;;27.35;11.73;;;2.50;99.90;;;;;;6161459;23;20093;-90
2023/03/06 01:28:36;;;;;;;21.00;10.90;;;2.40;99.90;;;;;;6160718;23;20012;-91
2023/03/06 01:31:03;;;;;;;22.10;10.38;;;2.40;99.90;;;;;;6160107;23;20009;-90
2023/03/06 01:33:29;;;;;;;24.48;11.50;;;2.40;99.90;;;;;;6160323;23;20009;-90
2023/03/06 01:35:55;;;;;;;24.27;11.40;;;2.50;99.90;;;;;;6159567;23;20007;-91
2023/03/06 01:38:21;;;;;;;21.75;11.02;;;2.50;99.90;;;;;;6160025;23;20020;-91
2023/03/06 01:40:46;;;;;;;16.30;8.90;;;2.50;99.90;;;;;;6160116;23;20020;-90
2023/03/06 01:43:27;;;;;;;20.83;10.00;;;2.50;99.90;;;;;;6159610;23;20008;-91
2023/03/06 01:46:22;;;;;;;;;;;2.40;99.90;;;;;;6160156;23;20009;-90
2023/03/06 01:48:52;;;;;;;17.73;9.70;;;2.50;99.90;;;;;;6153432;23;19904;-90
2023/03/06 01:51:18;;;;;;;20.92;9.43;;;2.50;99.90;;;;;;6159888;23;20005;-91
2023/03/06 01:53:45;;;;;;;20.52;10.52;;;2.50;99.90;;;;;;6159892;23;20082;-89
2023/03/06 01:56:13;;;;;;;20.85;9.90;;;2.50;99.90;;;;;;6163151;23;20031;-91
2023/03/06 01:58:42;;;;;;;17.60;9.95;;;2.50;99.90;;;;;;6160812;23;20341;-90
2023/03/06 02:01:12;;;;;;;26.90;11.50;;;2.50;99.90;;;;;;6159913;23;20009;-90
2023/03/06 02:03:39;;;;;;;26.70;13.00;;;2.50;99.90;;;;;;6159717;23;20505;-89
2023/03/06 02:06:05;;;;;;;22.35;10.38;;;2.40;99.90;;;;;;6159668;23;20017;-90
2023/03/06 02:08:32;;;;;;;20.80;10.05;;;2.50;99.90;;;;;;6159921;23;20055;-89
2023/03/06 02:11:06;;;;;;;19.70;9.73;;;2.50;99.90;;;;;;6159561;23;20433;-89
2023/03/06 02:13:33;;;;;;;21.98;11.23;;;2.50;99.90;;;;;;6159847;23;20016;-89
2023/03/06 02:15:58;;;;;;;18.40;9.77;;;2.50;99.90;;;;;;6159838;23;20471;-90
2023/03/06 02:18:24;;;;;;;17.90;10.10;;;2.50;99.90;;;;;;6159487;23;20005;-90
2023/03/06 02:20:57;;;;;;;20.60;11.05;;;2.50;99.90;;;;;;6159460;23;20084;-90
2023/03/06 02:23:34;;;;;;;23.35;11.38;;;2.50;99.90;;;;;;6159319;23;20009;-89
2023/03/06 02:26:01;;;;;;;19.83;9.45;;;2.50;99.90;;;;;;6159618;23;20051;-90
2023/03/06 02:28:27;;;;;;;22.10;10.90;;;2.50;99.90;;;;;;6159389;23;20009;-89
2023/03/06 02:30:54;;;;;;;25.75;11.48;;;2.60;99.90;;;;;;6159950;23;20007;-90
2023/03/06 02:33:23;;;;;;;20.35;10.35;;;2.60;99.90;;;;;;6169627;23;20527;-90
2023/03/06 02:35:55;;;;;;;20.08;10.25;;;2.50;99.90;;;;;;6159973;23;20377;-89
2023/03/06 02:38:24;;;;;;;20.33;10.27;;;2.60;99.90;;;;;;6185684;23;20005;-89
2023/03/06 02:40:51;;;;;;;21.37;11.13;;;2.60;99.90;;;;;;6159293;23;20005;-89
2023/03/06 02:43:27;;;;;;;22.95;11.38;;;2.60;99.90;;;;;;6159272;23;20345;-89
2023/03/06 02:45:54;;;;;;;17.58;10.57;;;2.60;99.90;;;;;;6159745;23;19997;-89
2023/03/06 02:48:20;;;;;;;20.35;10.93;;;2.60;99.90;;;;;;6159113;23;20036;-89
2023/03/06 02:50:46;;;;;;;18.38;11.27;;;2.60;99.90;;;;;;6185541;23;20074;-90
2023/03/06 02:53:15;;;;;;;21.60;10.48;;;2.60;99.90;;;;;;6159633;23;20009;-89
2023/03/06 02:55:41;;;;;;;18.35;10.32;;;2.60;99.90;;;;;;6159357;23;20088;-89
2023/03/06 02:58:07;;;;;;;19.30;10.73;;;2.60;99.90;;;;;;6159144;23;20009;-89
2023/03/06 03:00:33;;;;;;;21.35;10.52;;;2.70;99.90;;;;;;6158964;23;20008;-89
2023/03/06 03:03:00;;;;;;;20.67;10.43;;;2.70;99.90;;;;;;6158954;23;20504;-89
2023/03/06 03:05:25;;;;;;;23.83;10.93;;;2.60;99.90;;;;;;6158418;23;20048;-89
2023/03/06 03:07:51;;;;;;;26.88;11.25;;;2.70;99.90;;;;;;6158782;23;20015;-89
2023/03/06 03:10:17;;;;;;;22.77;10.95;;;2.70;99.90;;;;;;6158872;23;20005;-89
2023/03/06 03:12:43;;;;;;;20.80;11.30;;;2.60;99.90;;;;;;6158165;23;20021;-89
2023/03/06 03:15:09;;;;;;;22.63;10.77;;;2.70;99.90;;;;;;6158895;23;20001;-88
2023/03/06 03:17:40;;;;;;;19.50;11.40;;;2.70;99.90;;;;;;6158433;23;20005;-89
2023/03/06 03:20:09;;;;;;;21.80;11.10;;;2.70;99.90;;;;;;6158798;23;20024;-89
2023/03/06 03:22:35;;;;;;;22.17;11.15;;;2.60;99.90;;;;;;6159314;23;20021;-88
2023/03/06 03:25:02;;;;;;;18.38;10.40;;;2.70;99.90;;;;;;6159633;23;20016;-88
2023/03/06 03:27:28;;;;;;;23.80;12.95;;;2.60;99.90;;;;;;6159986;23;20009;-87
2023/03/06 03:29:56;;;;;;;21.17;11.52;;;2.60;99.90;;;;;;6158446;23;20112;-87
2023/03/06 03:32:22;;;;;;;27.67;13.27;;;2.60;99.90;;;;;;6158408;23;20082;-87
2023/03/06 03:34:48;;;;;;;24.95;12.75;;;2.70;99.90;;;;;;6158405;23;20005;-87
2023/03/06 03:37:14;;;;;;;25.00;13.48;;;2.60;99.90;;;;;;6158279;23;20100;-88
2023/03/06 03:39:39;;;;;;;26.27;13.85;;;2.60;99.90;;;;;;6158266;23;20044;-89
2023/03/06 03:42:05;;;;;;;25.75;13.50;;;2.60;99.90;;;;;;6158483;23;20009;-89
2023/03/06 03:44:31;;;;;;;29.40;13.95;;;2.70;99.90;;;;;;6158565;23;20005;-88
2023/03/06 03:46:57;;;;;;;25.77;13.88;;;2.60;99.90;;;;;;6158419;23;20318;-89
2023/03/06 03:49:23;;;;;;;24.98;13.32;;;2.70;99.90;;;;;;6157989;23;20012;-88
2023/03/06 03:51:49;;;;;;;25.20;13.23;;;2.70;99.90;;;;;;6158385;23;20020;-89
2023/03/06 03:54:14;;;;;;;25.52;13.55;;;2.70;99.90;;;;;;6158470;23;20295;-89
2023/03/06 03:56:40;;;;;;;26.05;13.70;;;2.70;99.90;;;;;;6158266;23;20092;-88
2023/03/06 03:59:07;;;;;;;28.55;14.10;;;2.70;99.90;;;;;;6158256;23;20009;-89
2023/03/06 04:01:33;;;;;;;33.40;14.48;;;2.70;99.90;;;;;;6158606;23;20463;-89
2023/03/06 04:03:58;;;;;;;29.50;15.52;;;2.70;99.90;;;;;;6157839;23;20071;-89
2023/03/06 04:06:24;;;;;;;28.67;14.98;;;2.70;99.90;;;;;;6185099;23;20332;-89
2023/03/06 04:08:50;;;;;;;24.25;13.52;;;2.70;99.90;;;;;;6161250;23;20031;-88
2023/03/06 04:11:16;;;;;;;29.67;15.25;;;2.70;99.90;;;;;;6160343;23;20104;-88
2023/03/06 04:13:41;;;;;;;30.25;15.23;;;2.70;99.90;;;;;;6158549;23;20314;-88
2023/03/06 04:16:07;;;;;;;28.85;16.27;;;2.70;99.90;;;;;;6158640;23;20088;-89
2023/03/06 04:18:33;;;;;;;31.23;16.35;;;2.60;99.90;;;;;;6158185;23;20432;-88
2023/03/06 04:20:58;;;;;;;30.98;16.38;;;2.70;99.90;;;;;;6158398;23;20005;-89
2023/03/06 04:23:26;;;;;;;31.00;16.70;;;2.70;99.90;;;;;;6158703;23;20009;-89
2023/03/06 04:25:52;;;;;;;33.67;16.95;;;2.70;99.90;;;;;;6158370;23;20008;-89
2023/03/06 04:28:18;;;;;;;30.85;16.42;;;2.70;99.90;;;;;;6158238;23;20009;-88
2023/03/06 04:30:44;;;;;;;31.52;16.15;;;2.70;99.90;;;;;;6160222;23;20080;-88
2023/03/06 04:33:09;;;;;;;29.70;16.40;;;2.70;99.90;;;;;;6160235;23;20413;-89
2023/03/06 04:35:36;;;;;;;31.40;14.55;;;2.70;99.90;;;;;;6160257;23;20005;-89
2023/03/06 04:38:02;;;;;;;26.23;12.90;;;2.80;99.90;;;;;;6160108;23;20005;-89
2023/03/06 04:40:30;;;;;;;23.98;11.95;;;2.80;99.90;;;;;;6161064;23;20001;-88
2023/03/06 04:42:57;;;;;;;22.48;10.98;;;2.90;99.90;;;;;;6162378;23;20016;-89
2023/03/06 04:45:23;;;;;;;19.92;11.32;;;2.90;99.90;;;;;;6185741;23;20035;-89
2023/03/06 04:47:49;;;;;;;15.13;8.48;;;2.90;99.90;;;;;;6160069;23;20005;-88
2023/03/06 04:50:15;;;;;;;17.67;9.63;;;3.00;99.90;;;;;;6160068;23;20009;-88
2023/03/06 04:52:41;;;;;;;17.65;9.68;;;3.00;99.90;;;;;;6160276;23;20748;-88
2023/03/06 04:55:09;;;;;;;14.68;8.27;;;3.10;99.90;;;;;;6160131;23;20092;-89
2023/03/06 04:57:35;;;;;;;16.00;8.68;;;3.10;99.90;;;;;;6159687;23;20029;-89
2023/03/06 05:00:04;;;;;;;23.30;12.68;;;3.20;99.90;;;;;;6159771;23;20048;-89
2023/03/06 05:02:30;;;;;;;27.70;15.45;;;3.20;99.90;;;;;;6159600;23;20012;-89
2023/03/06 05:04:56;;;;;;;26.88;14.65;;;3.20;99.90;;;;;;6159909;23;20021;-88
2023/03/06 05:07:21;;;;;;;21.75;12.25;;;3.20;99.90;;;;;;6160021;23;20016;-88
2023/03/06 05:09:47;;;;;;;22.00;11.88;;;3.30;99.90;;;;;;6159550;23;20036;-88
2023/03/06 05:12:13;;;;;;;21.77;11.55;;;3.20;99.90;;;;;;6159634;23;20074;-88
2023/03/06 05:14:38;;;;;;;22.08;10.63;;;3.20;99.90;;;;;;6160058;23;20421;-87
2023/03/06 05:17:04;;;;;;;19.88;10.25;;;3.30;99.90;;;;;;6162181;23;20013;-89
2023/03/06 05:19:30;;;;;;;17.92;10.25;;;3.30;99.90;;;;;;6162371;23;20446;-88
2023/03/06 05:21:55;;;;;;;21.92;11.15;;;3.30;99.90;;;;;;6162022;23;20032;-88
2023/03/06 05:24:21;;;;;;;25.27;12.95;;;3.30;99.90;;;;;;6187415;23;20360;-88
2023/03/06 05:26:47;;;;;;;22.63;12.60;;;3.40;99.90;;;;;;6161427;23;20028;-88
2023/03/06 05:29:12;;;;;;;17.05;9.70;;;3.40;99.90;;;;;;6160037;23;20093;-88
2023/03/06 05:31:38;;;;;;;17.52;9.23;;;3.40;99.90;;;;;;6186150;23;20084;-89
2023/03/06 05:34:03;;;;;;;15.50;8.75;;;3.40;99.90;;;;;;6159768;23;20016;-88
2023/03/06 05:36:29;;;;;;;19.65;9.07;;;3.40;99.90;;;;;;6159926;23;20001;-88
2023/03/06 05:38:55;;;;;;;13.65;7.97;;;3.40;99.90;;;;;;6159917;23;20088;-88
2023/03/06 05:41:21;;;;;;;14.50;8.02;;;3.40;99.90;;;;;;6159610;23;20425;-88
2023/03/06 05:43:46;;;;;;;16.05;9.07;;;3.50;99.90;;;;;;6162240;23;20085;-88
2023/03/06 05:46:12;;;;;;;15.57;8.10;;;3.50;99.90;;;;;;6165201;23;20001;-88
2023/03/06 05:48:38;;;;;;;13.55;8.43;;;3.50;99.90;;;;;;6164382;23;20091;-88
2023/03/06 05:51:04;;;;;;;15.40;8.70;;;3.60;99.90;;;;;;6161358;23;20029;-88
2023/03/06 05:53:31;;;;;;;12.02;6.78;;;3.50;99.90;;;;;;6160173;23;20044;-88
2023/03/06 05:56:07;;;;;;;12.45;6.55;;;3.60;99.90;;;;;;6160357;23;20013;-88
2023/03/06 05:58:33;;;;;;;12.20;6.50;;;3.60;99.90;;;;;;6159925;23;20348;-88
2023/03/06 06:00:59;;;;;;;9.98;5.40;;;3.70;99.90;;;;;;6159901;23;20105;-88
2023/03/06 06:03:25;;;;;;;13.23;6.10;;;3.70;99.90;;;;;;6161031;23;20032;-88
2023/03/06 06:05:51;;;;;;;12.40;6.47;;;3.70;99.90;;;;;;6161830;23;20027;-87
2023/03/06 06:08:17;;;;;;;10.30;5.80;;;3.80;99.90;;;;;;6161179;23;20325;-88
2023/03/06 06:10:43;;;;;;;10.93;5.63;;;3.80;99.90;;;;;;6162073;23;20120;-87
2023/03/06 06:13:09;;;;;;;10.20;5.97;;;3.80;99.90;;;;;;6160003;23;20396;-87
2023/03/06 06:15:37;;;;;;;9.70;5.05;;;3.80;99.90;;;;;;6159912;23;20088;-87
2023/03/06 06:18:02;;;;;;;11.75;5.47;;;3.90;99.90;;;;;;6159707;23;20009;-87
2023/03/06 06:20:28;;;;;;;12.35;5.90;;;3.90;99.90;;;;;;6159875;23;20001;-87
2023/03/06 06:22:54;;;;;;;12.10;6.13;;;3.90;99.90;;;;;;6160058;23;20362;-87
2023/03/06 06:25:19;;;;;;;12.05;5.85;;;3.90;99.90;;;;;;6159942;23;20009;-87
2023/03/06 06:27:45;;;;;;;11.57;5.75;;;3.90;99.90;;;;;;6185979;23;20008;-87
2023/03/06 06:30:11;;;;;;;12.50;5.70;;;3.90;99.90;;;;;;6159632;23;20067;-87
2023/03/06 06:32:37;;;;;;;8.40;4.63;;;3.90;99.90;;;;;;6159239;23;20433;-87
2023/03/06 06:35:04;;;;;;;11.25;5.18;;;3.90;99.90;;;;;;6159518;23;20433;-86
2023/03/06 06:37:30;;;;;;;9.70;4.80;;;4.00;99.90;;;;;;6159038;23;20054;-87
2023/03/06 06:39:55;;;;;;;8.50;4.78;;;4.00;99.90;;;;;;6158896;23;20083;-88
2023/03/06 06:42:21;;;;;;;8.10;4.00;;;4.00;99.90;;;;;;6159551;23;20005;-88
2023/03/06 06:44:47;;;;;;;7.65;3.67;;;3.90;99.90;;;;;;6159124;23;20009;-89
2023/03/06 06:47:13;;;;;;;6.40;3.58;;;4.00;99.90;;;;;;6159217;23;20028;-85
2023/03/06 06:49:38;;;;;;;8.23;3.70;;;4.00;99.90;;;;;;6158981;23;20020;-87
2023/03/06 06:52:05;;;;;;;6.57;3.72;;;3.90;99.90;;;;;;6158529;23;20117;-87
2023/03/06 06:54:35;;;;;;;5.93;3.83;;;3.90;99.90;;;;;;6158755;23;20002;-90
2023/03/06 06:57:01;;;;;;;7.93;3.55;;;3.90;99.90;;;;;;6158792;23;20063;-88
2023/03/06 06:59:26;;;;;;;8.05;3.90;;;3.90;99.90;;;;;;6185071;23;20084;-88
2023/03/06 07:01:52;;;;;;;6.75;3.92;;;3.90;99.90;;;;;;6159047;23;20437;-88
2023/03/06 07:04:18;;;;;;;6.25;3.67;;;3.90;99.90;;;;;;6158540;23;20403;-88
2023/03/06 07:06:44;;;;;;;7.47;3.85;;;3.90;99.90;;;;;;6158747;23;20088;-89
2023/03/06 07:09:11;;;;;;;11.93;4.00;;;3.90;99.90;;;;;;6158508;23;20101;-88
2023/03/06 07:11:38;;;;;;;9.10;4.45;;;3.90;99.90;;;;;;6158114;23;20044;-88
2023/03/06 07:14:04;;;;;;;10.63;3.80;;;3.90;99.90;;;;;;6158824;23;20109;-87
2023/03/06 07:16:29;;;;;;;6.25;3.70;;;3.90;99.90;;;;;;6159004;23;20437;-87
2023/03/06 07:18:55;;;;;;;9.13;3.83;;;3.90;99.90;;;;;;6183136;23;20025;-88
2023/03/06 07:21:23;;;;;;;8.85;4.07;;;3.90;99.90;;;;;;6184219;23;20020;-88
2023/03/06 07:23:48;;;;;;;9.38;3.28;;;4.00;99.90;;;;;;6158171;23;20309;-88
2023/03/06 07:26:14;;;;;;;8.82;4.32;;;4.00;99.90;;;;;;6158574;23;20583;-87
2023/03/06 07:28:40;;;;;;;4.85;3.10;;;4.00;99.90;;;;;;6160493;23;20012;-88
2023/03/06 07:31:10;;;;;;;5.13;2.42;;;4.10;99.90;;;;;;6158051;23;20008;-88
2023/03/06 07:33:37;;;;;;;7.10;3.00;;;4.00;99.90;;;;;;6157559;23;20048;-88
2023/03/06 07:36:03;;;;;;;4.38;2.90;;;4.10;99.90;;;;;;6157624;23;20424;-88
2023/03/06 07:38:28;;;;;;;6.07;3.28;;;4.10;99.90;;;;;;6157442;23;20001;-87
2023/03/06 07:40:54;;;;;;;6.15;3.25;;;4.10;99.90;;;;;;6157503;23;20040;-88
2023/03/06 07:43:20;;;;;;;7.85;3.80;;;4.10;99.90;;;;;;6182603;23;20005;-88
2023/03/06 07:45:46;;;;;;;8.43;3.67;;;4.20;99.90;;;;;;6158064;23;20001;-88
2023/03/06 07:48:13;;;;;;;5.15;3.03;;;4.20;99.90;;;;;;6158188;23;20444;-88
2023/03/06 07:50:40;;;;;;;8.27;3.60;;;4.30;99.90;;;;;;6185998;23;20028;-88
2023/03/06 07:53:06;;;;;;;6.80;3.63;;;4.30;99.90;;;;;;6158767;23;20024;-89
2023/03/06 07:55:32;;;;;;;7.80;3.42;;;4.20;99.90;;;;;;6158460;23;20001;-87
2023/03/06 07:57:57;;;;;;;9.20;4.00;;;4.30;99.90;;;;;;6158443;23;20084;-87
2023/03/06 08:00:23;;;;;;;8.15;3.60;;;4.30;99.90;;;;;;6158594;23;20005;-88
2023/03/06 08:02:49;;;;;;;8.73;3.58;;;4.30;99.90;;;;;;6158659;23;20005;-87
2023/03/06 08:05:15;;;;;;;8.82;4.03;;;4.30;99.90;;;;;;6157271;23;20104;-88
2023/03/06 08:07:44;;;;;;;4.85;3.60;;;4.40;99.90;;;;;;6157603;23;20088;-88
2023/03/06 08:10:15;;;;;;;5.82;3.20;;;4.40;99.90;;;;;;6156811;23;20008;-88
2023/03/06 08:12:40;;;;;;;;;;;4.40;99.90;;;;;;6159341;23;20365;-87
2023/03/06 08:15:09;;;;;;;5.20;2.55;;;4.40;99.90;;;;;;6158103;23;19904;-89
2023/03/06 08:17:34;;;;;;;5.07;2.55;;;4.40;99.90;;;;;;6162176;23;20009;-88
2023/03/06 08:20:00;;;;;;;8.43;2.17;;;4.50;99.90;;;;;;6160376;23;20063;-89
2023/03/06 08:22:25;;;;;;;4.97;2.20;;;4.50;99.90;;;;;;6160429;23;20088;-88
2023/03/06 08:24:55;;;;;;;3.30;1.90;;;4.50;99.90;;;;;;6160652;23;20009;-87
2023/03/06 08:27:20;;;;;;;7.15;2.30;;;4.60;99.90;;;;;;6187085;23;20360;-89
2023/03/06 08:29:46;;;;;;;3.47;2.30;;;4.60;99.90;;;;;;6161215;23;20005;-88
2023/03/06 08:32:12;;;;;;;3.38;2.00;;;4.50;99.90;;;;;;6160586;23;20013;-89
2023/03/06 08:34:39;;;;;;;5.55;2.28;;;4.60;99.90;;;;;;6161305;23;20029;-89
2023/03/06 08:37:05;;;;;;;8.10;2.88;;;4.60;99.90;;;;;;6161642;23;20499;-89
2023/03/06 08:39:31;;;;;;;3.67;2.33;;;4.70;99.90;;;;;;6160959;23;20001;-89
2023/03/06 08:41:57;;;;;;;4.57;3.03;;;4.70;99.90;;;;;;6159802;23;20156;-89
2023/03/06 08:44:22;;;;;;;3.50;1.88;;;4.70;99.90;;;;;;6159764;23;20001;-89
2023/03/06 08:46:48;;;;;;;5.45;2.15;;;4.80;99.90;;;;;;6160137;23;20009;-88
2023/03/06 08:49:14;;;;;;;3.55;2.53;;;4.80;99.90;;;;;;6160783;23;20388;-89
2023/03/06 08:51:39;;;;;;;4.00;2.05;;;4.80;99.90;;;;;;6155421;23;20013;-88
2023/03/06 08:54:11;;;;;;;4.75;2.70;;;4.90;99.90;;;;;;6159044;23;20095;-90
2023/03/06 08:56:37;;;;;;;5.22;2.47;;;4.80;99.90;;;;;;6160792;23;20001;-90
2023/03/06 08:59:04;;;;;;;9.55;4.95;;;4.90;99.90;;;;;;6160959;23;20029;-89
2023/03/06 09:01:33;;;;;;;6.88;3.35;;;4.90;99.90;;;;;;6162571;23;20373;-90
2023/03/06 09:04:03;;;;;;;7.78;3.17;;;4.90;99.90;;;;;;6185990;23;20052;-89
2023/03/06 09:06:31;;;;;;;5.43;2.72;;;4.90;99.90;;;;;;6165069;23;20027;-89
2023/03/06 09:08:57;;;;;;;6.53;3.28;;;4.90;99.90;;;;;;6161630;23;20008;-88
2023/03/06 09:11:24;;;;;;;5.18;3.13;;;5.00;99.90;;;;;;6160235;23;20025;-90
2023/03/06 09:13:50;;;;;;;4.82;2.53;;;5.00;99.90;;;;;;6159971;23;20495;-90
2023/03/06 09:16:16;;;;;;;6.18;2.60;;;5.00;99.90;;;;;;6160436;23;20013;-91
2023/03/06 09:18:41;;;;;;;3.20;2.15;;;5.00;99.90;;;;;;6162377;23;20015;-93
2023/03/06 09:21:08;;;;;;;4.18;1.90;;;5.00;99.90;;;;;;6163428;23;20012;-90
2023/03/06 09:23:35;;;;;;;3.00;2.22;;;5.00;99.90;;;;;;6163099;23;20256;-90
2023/03/06 09:26:00;;;;;;;5.40;2.53;;;5.00;99.90;;;;;;6163984;23;20025;-91
2023/03/06 09:28:26;;;;;;;6.80;2.47;;;5.00;99.90;;;;;;6171662;23;20005;-91
2023/03/06 09:30:52;;;;;;;6.97;3.05;;;5.00;99.90;;;;;;6169860;23;20025;-92
2023/03/06 09:33:19;;;;;;;16.02;2.65;;;5.10;99.90;;;;;;6167871;23;20016;-91
2023/03/06 09:35:49;;;;;;;4.85;2.22;;;5.10;99.90;;;;;;6169359;23;20005;-90
2023/03/06 09:38:16;;;;;;;2.85;1.50;;;5.10;99.90;;;;;;6168515;23;20083;-90
2023/03/06 09:40:57;;;;;;;4.30;2.05;;;5.10;99.90;;;;;;6166825;23;20013;-90
2023/03/06 09:43:43;;;;;;;;;;;5.10;99.90;;;;;;6164914;23;20001;-91
2023/03/06 09:46:34;;;;;;;4.55;1.75;;;5.10;99.90;;;;;;6165771;23;19904;-90
2023/03/06 09:49:34;;;;;;;3.08;1.67;;;5.10;99.90;;;;;;6173606;23;20005;-91
2023/03/06 09:52:21;;;;;;;2.78;1.65;;;5.10;99.90;;;;;;6172092;23;20021;-90
2023/03/06 09:54:55;;;;;;;3.47;1.58;;;5.10;99.90;;;;;;6167023;23;20400;-91
2023/03/06 09:57:34;;;;;;;3.95;1.70;;;5.10;99.90;;;;;;6161929;23;20016;-90
2023/03/06 10:00:05;;;;;;;1.65;1.40;;;5.20;99.90;;;;;;6164088;23;20001;-91
2023/03/06 10:02:40;;;;;;;11.23;3.88;;;5.20;99.90;;;;;;6161905;23;20455;-90
2023/03/06 10:05:17;;;;;;;4.85;1.92;;;5.20;99.90;;;;;;6161786;23;20020;-91
2023/03/06 10:07:48;;;;;;;2.92;1.40;;;5.20;99.90;;;;;;6160887;23;20005;-90
2023/03/06 10:10:23;;;;;;;2.60;1.80;;;5.20;99.90;;;;;;6161591;23;20005;-91
2023/03/06 10:13:04;;;;;;;4.03;1.92;;;5.30;99.90;;;;;;6161721;23;20048;-90
2023/03/06 10:15:34;;;;;;;2.38;1.40;;;5.30;99.90;;;;;;6161117;23;20417;-90
2023/03/06 10:18:02;;;;;;;6.60;1.73;;;5.30;99.90;;;;;;6161085;23;20009;-92
2023/03/06 10:20:39;;;;;;;4.53;1.50;;;5.40;99.90;;;;;;6161465;23;20084;-91
2023/03/06 10:23:23;;;;;;;2.08;1.35;;;5.40;99.90;;;;;;6161607;23;20490;-89
2023/03/06 10:26:15;;;;;;;1.30;1.00;;;5.40;99.90;;;;;;6161470;23;20310;-91
2023/03/06 10:29:03;;;;;;;2.75;1.40;;;5.50;99.90;;;;;;6166859;23;20009;-89
2023/03/06 10:31:31;;;;;;;2.17;1.30;;;5.50;99.90;;;;;;6129056;23;20009;-90
2023/03/06 10:33:57;;;;;;;2.78;1.30;;;5.50;99.90;;;;;;6161017;23;20440;-90
2023/03/06 10:36:28;;;;;;;2.08;0.90;;;5.60;99.90;;;;;;6161151;23;20001;-90
2023/03/06 10:38:56;;;;;;;1.80;1.23;;;5.60;99.90;;;;;;6161128;23;20438;-90
2023/03/06 10:41:28;;;;;;;3.10;1.00;;;5.70;99.90;;;;;;6170998;23;20009;-90
2023/03/06 10:43:59;;;;;;;2.28;1.00;;;5.90;99.90;;;;;;6163633;23;20001;-90
2023/03/06 10:46:32;;;;;;;2.97;0.85;;;6.10;99.90;;;;;;6160985;23;20040;-90
2023/03/06 10:49:00;;;;;;;2.03;1.00;;;6.30;99.90;;;;;;6159836;23;20005;-90
2023/03/06 10:51:27;;;;;;;2.47;1.00;;;6.40;99.90;;;;;;6159392;23;20009;-90
2023/03/06 10:53:56;;;;;;;4.13;1.33;;;6.50;99.90;;;;;;6159639;23;20020;-90
2023/03/06 10:56:35;;;;;;;4.22;1.02;;;6.60;99.90;;;;;;6159838;23;20131;-89
2023/03/06 10:59:18;;;;;;;5.70;1.58;;;6.80;99.90;;;;;;6160035;23;20001;-91
2023/03/06 11:01:47;;;;;;;1.20;0.73;;;7.00;99.90;;;;;;6160903;23;20056;-90
2023/03/06 11:04:26;;;;;;;0.65;0.22;;;7.10;99.90;;;;;;6186427;23;20012;-90
2023/03/06 11:07:13;;;;;;;1.45;0.38;;;7.00;99.90;;;;;;6160884;23;20009;-91
2023/03/06 11:09:41;;;;;;;0.40;0.10;;;6.70;99.90;;;;;;6159173;23;20012;-92
2023/03/06 11:12:35;;;;;;;0.13;0.13;;;6.50;99.90;;;;;;6159394;23;20388;-91
2023/03/06 11:15:21;;;;;;;0.65;0.20;;;6.30;99.90;;;;;;6159805;23;20065;-91
2023/03/06 11:17:49;;;;;;;0.77;0.20;;;6.10;99.90;;;;;;6159559;23;20001;-90
2023/03/06 11:20:23;;;;;;;0.30;0.30;;;6.00;99.90;;;;;;6159648;23;20013;-90
2023/03/06 11:22:53;;;;;;;1.38;0.30;;;5.90;99.90;;;;;;6159478;23;20397;-91
2023/03/06 11:25:23;;;;;;;3.05;0.38;;;5.80;99.90;;;;;;6159575;23;20029;-92
2023/03/06 11:28:02;;;;;;;0.55;0.22;;;5.80;99.90;;;;;;6159177;23;20013;-91
2023/03/06 11:30:48;;;;;;;1.10;0.30;;;5.80;99.90;;;;;;6159680;23;20013;-90
2023/03/06 11:33:41;;;;;;;0.45;0.10;;;5.80;99.90;;;;;;6159396;23;20017;-91
2023/03/06 11:36:35;;;;;;;0.60;0.22;;;5.80;99.90;;;;;;6159092;23;20047;-91
2023/03/06 11:39:11;;;;;;;1.27;0.25;;;5.70;99.90;;;;;;6184880;23;20005;-90
2023/03/06 11:42:00;;;;;;;0.40;0.20;;;5.70;99.90;;;;;;6159561;23;20004;-91
2023/03/06 11:44:44;;;;;;;0.73;0.10;;;5.80;99.90;;;;;;6159711;23;20012;-91
2023/03/06 11:47:17;;;;;;;1.00;0.20;;;6.00;99.90;;;;;;6159564;23;19997;-92
2023/03/06 11:50:15;;;;;;;0.20;0.20;;;6.10;99.90;;;;;;6160569;23;20024;-89
2023/03/06 11:52:50;;;;;;;0.30;0.20;;;6.20;99.90;;;;;;6066325;23;20054;-91
2023/03/06 11:55:43;;;;;;;2.67;0.52;;;6.40;99.90;;;;;;6065516;23;20081;-89
2023/03/06 11:58:33;;;;;;;3.30;0.55;;;6.40;99.90;;;;;;6023892;23;20955;-89
2023/03/06 12:01:13;;;;;;;2.60;0.60;;;6.50;99.90;;;;;;6041391;23;20054;-91
2023/03/06 12:04:16;;;;;;;3.10;0.70;;;6.50;99.90;;;;;;6042088;23;20096;-91
2023/03/06 12:06:50;;;;;;;2.58;0.77;;;6.60;99.90;;;;;;6041996;23;20019;-92
2023/03/06 12:09:40;;;;;;;4.85;0.93;;;6.60;99.90;;;;;;6041703;23;20017;-91
2023/03/06 12:12:27;;;;;;;4.70;1.30;;;6.70;99.90;;;;;;6065243;23;20038;-90
2023/03/06 12:15:18;;;;;;;6.95;1.15;;;6.70;99.90;;;;;;6043032;23;20043;-90
2023/03/06 12:17:49;;;;;;;2.28;1.20;;;6.60;99.90;;;;;;6067156;23;20455;-90
2023/03/06 12:20:45;;;;;;;2.42;0.90;;;6.70;99.90;;;;;;6041381;23;20021;-90
2023/03/06 12:23:30;;;;;;;1.73;0.55;;;6.90;99.90;;;;;;6041307;23;20015;-90
2023/03/06 12:26:05;;;;;;;2.65;1.40;;;7.00;99.90;;;;;;6065009;23;20066;-90
2023/03/06 12:28:57;;;;;;;2.60;0.82;;;7.10;99.90;;;;;;6072866;23;19999;-90
2023/03/06 12:31:44;;;;;;;1.88;0.95;;;7.20;99.90;;;;;;6158619;23;20013;-90
2023/03/06 12:34:35;;;;;;;2.50;0.95;;;7.30;99.90;;;;;;6185003;23;20005;-90
2023/03/06 12:37:15;;;;;;;4.90;1.15;;;7.20;99.90;;;;;;6159231;23;20032;-91
2023/03/06 12:40:09;;;;;;;2.85;1.25;;;7.10;99.90;;;;;;6159187;23;20020;-88
2023/03/06 12:42:59;;;;;;;3.30;0.93;;;7.10;99.90;;;;;;6159545;23;20017;-89
2023/03/06 12:45:38;;;;;;;9.73;2.50;;;7.00;99.90;;;;;;6159568;23;20064;-90
2023/03/06 12:48:15;;;;;;;4.10;1.15;;;7.00;99.90;;;;;;6159270;23;20001;-90
2023/03/06 12:50:43;;;;;;;5.60;1.10;;;6.90;99.90;;;;;;6160469;23;20017;-86
2023/03/06 12:53:30;;;;;;;2.33;0.77;;;6.80;99.90;;;;;;6160707;23;20024;-89
2023/03/06 12:55:58;;;;;;;3.25;1.20;;;6.80;99.90;;;;;;6161072;23;20135;-89
2023/03/06 12:58:30;;;;;;;1.58;0.68;;;6.70;99.90;;;;;;6160678;23;20016;-90
2023/03/06 13:01:26;;;;;;;2.70;0.77;;;6.70;99.90;;;;;;6161183;23;20091;-89